• Join FlightAware (Why Join?)
  • Login
  • US Flag 
06:30AM EDT


 

Airport Tracker/Info


-or-


 

Live Flight TrackerFlight Track Log ✈ AWE3794 ✈ 18-Apr-2013 ✈ KCLE - KPHL

Flight Track Log - Related Links

Times and Time Zones

All times are in EDT time to prevent confusion due to time zone crossing. See the AWE3794 flight status page for this flight to view local times or setup timezone preferences in your user account.

Time Position Orientation Groundspeed Altitude Reporting Facility
EDT Latitude Longitude Course Direction KTS MPH feet Rate Location/Type
09:29AM 41.3317 -81.8661 167° South 200 230 5,500  Level Cleveland Center
09:30AM 41.2404 -81.4972 124° Southeast  Level FlightAware Approximate
09:30AM 41.2908 -81.7742 121° Southeast 290 334 7,600  Level Cleveland Center
09:31AM 41.1830 -81.3827 124° Southeast  Level FlightAware Approximate
09:32AM 41.1270 -81.2674 118° Southeast  Level FlightAware Approximate
09:32AM 41.2261 -81.5631 112° Southeast 298 343 12,000  Level Cleveland Center
09:33AM 41.0814 -81.1443 114° Southeast  Level FlightAware Approximate
09:33AM 41.1894 -81.4522 114° Southeast 312 359 13,700  Level Cleveland Center
09:34AM 41.1486 -81.3358 115° Southeast 333 383 15,600 1,740 Climbing Cleveland Center
09:35AM 41.1097 -81.2169 113° Southeast 345 397 17,200 1,560 Climbing Cleveland Center
09:36AM 41.0769 -81.0981 110° East 345 397 18,800 1,440 Climbing Cleveland Center
09:37AM 41.0442 -80.9658 108° East 357 411 20,100 1,260 Climbing Cleveland Center
09:38AM 41.0069 -80.8389 111° Southeast 363 418 21,400 1,140 Climbing Cleveland Center
09:39AM 40.9697 -80.7069 110° East 373 429 22,400 1,200 Climbing Cleveland Center
09:40AM 40.9322 -80.5775 111° Southeast 373 429 23,900 1,260 Climbing Cleveland Center
09:41AM 40.8967 -80.4486 110° East 373 429 25,000 540 Climbing Cleveland Center
09:42AM 40.8528 -80.3169 114° Southeast 378 435 25,000  Level Cleveland Center
09:43AM 40.8106 -80.1744 111° Southeast 391 450 25,000  Level Cleveland Center
09:44AM 40.7600 -80.0403 116° Southeast 399 459 25,000  Level Cleveland Center
09:45AM 40.7114 -79.8956 114° Southeast 399 459 25,000  Level Cleveland Center
09:46AM 40.6667 -79.7700 115° Southeast 389 448 25,000  Level Cleveland Center
09:47AM 40.6200 -79.6475 117° Southeast 377 434 25,000  Level Cleveland Center
09:48AM 40.5750 -79.5197 115° Southeast 377 434 25,000  Level Cleveland Center
09:49AM 40.5444 -79.3892 107° East 377 434 25,000  Level Cleveland Center
09:50AM 40.5225 -79.2667 103° East 377 434 25,000  Level Cleveland Center
09:51AM 40.5019 -79.1278 101° East 377 434 25,000  Level Cleveland Center
09:52AM 40.4769 -78.9728 102° East 382 440 25,000  Level Cleveland Center
09:53AM 40.4542 -78.8367 102° East 382 440 25,000  Level Cleveland Center
09:54AM 40.4331 -78.6983 101° East 382 440 25,000  Level Cleveland Center
09:55AM 40.4119 -78.5625 101° East 382 440 25,000  Level Cleveland Center
09:56AM 40.3886 -78.4269 103° East 382 440 25,000  Level Cleveland Center
09:58AM 40.3506 -78.2042 103° East 388 447 25,000  Level New York Center
09:59AM 40.3278 -78.0681 102° East 388 447 25,000  Level New York Center
10:00AM 40.3092 -77.9272 100° East 388 447 25,000  Level New York Center
10:01AM 40.3114 -77.7886 89° East 377 434 25,000  Level New York Center
10:02AM 40.2936 -77.6317 98° East 382 440 25,000 -540 Level New York Center
10:03AM 40.2783 -77.4967 98° East 382 440 24,000 -1,560 Descending New York Center
10:04AM 40.2589 -77.3589 100° East 382 440 21,900 -2,040 Descending New York Center
10:05AM 40.2431 -77.2294 99° East 367 422 20,000 -1,920 Descending New York Center
10:06AM 40.2286 -77.1139 99° East 361 415 18,100 -1,500 Descending New York Center
10:07AM 40.2111 -76.9711 99° East 355 409 17,000 -600 Descending New York Center
10:08AM 40.1947 -76.8444 100° East 355 409 17,000 -300 Level New York Center
10:09AM 40.1794 -76.7344 100° East 355 409 16,500 -900 Descending New York Center
10:10AM 40.1628 -76.6108 100° East 349 402 15,300 -1,260 Descending New York Center
10:11AM 40.1442 -76.4789 100° East 344 396 14,000 -1,320 Descending New York Center
10:12AM 40.1300 -76.3706 100° East 338 389 12,900 -1,200 Descending FAA TRACON SMA TRACON (SMA)
10:12AM 40.1261 -76.3328 98° East 337 388 12,600 -1,080 Descending FAA TRACON SMA TRACON (SMA)
10:12AM 40.1200 -76.2975 103° East 334 384 12,200 -1,200 Descending FAA TRACON SMA TRACON (SMA)
10:13AM 40.1175 -76.2528 94° East 329 379 11,800 -1,200 Descending FAA TRACON SMA TRACON (SMA)
10:13AM 40.1139 -76.2167 97° East 324 373 11,400 -1,200 Descending FAA TRACON SMA TRACON (SMA)
10:13AM 40.1119 -76.1808 94° East 322 371 11,000 -1,260 Descending FAA TRACON SMA TRACON (SMA)
10:14AM 40.1094 -76.1367 94° East 320 368 10,600 -1,260 Descending FAA TRACON SMA TRACON (SMA)
10:14AM 40.1067 -76.1014 96° East 318 366 10,200 -900 Descending FAA TRACON SMA TRACON (SMA)
10:14AM 40.1058 -76.0672 92° East 317 365 10,000 -1,020 Descending FAA TRACON SMA TRACON (SMA)
10:15AM 40.0992 -75.9897 96° East 308 354 9,200 -1,140 Descending FAA TRACON SMA TRACON (SMA)
10:15AM 40.0967 -75.9578 96° East 305 351 8,900 -1,200 Descending FAA TRACON SMA TRACON (SMA)
10:16AM 40.0806 -75.9225 121° Southeast 293 337 8,400 -1,200 Descending FAA TRACON SMA TRACON (SMA)
10:16AM 40.0608 -75.9075 150° Southeast 276 318 8,100 -1,080 Descending FAA TRACON SMA TRACON (SMA)
10:16AM 40.0361 -75.8903 152° Southeast 269 310 7,700 -1,200 Descending FAA TRACON SMA TRACON (SMA)
10:17AM 40.0161 -75.8733 147° Southeast 270 311 7,300 -1,080 Descending FAA TRACON SMA TRACON (SMA)
10:17AM 39.9972 -75.8553 144° Southeast 272 313 7,000 -960 Descending FAA TRACON SMA TRACON (SMA)
10:17AM 39.9789 -75.8372 143° Southeast 271 312 6,700 -1,200 Descending FAA TRACON SMA TRACON (SMA)
10:18AM 39.9567 -75.8150 143° Southeast 266 306 6,200 -900 Descending FAA TRACON SMA TRACON (SMA)
10:18AM 39.9381 -75.7969 143° Southeast 266 306 6,100 -180 Descending FAA TRACON SMA TRACON (SMA)
10:18AM 39.9203 -75.7794 143° Southeast 265 305 6,100  Level FAA TRACON SMA TRACON (SMA)
10:19AM 39.8942 -75.7525 142° Southeast 264 304 6,100 -180 Level FAA TRACON SMA TRACON (SMA)
10:19AM 39.8811 -75.7367 137° Southeast 262 302 6,000 -840 Descending FAA TRACON SMA TRACON (SMA)
10:19AM 39.8619 -75.7100 133° Southeast 268 308 5,600 -1,080 Descending FAA TRACON SMA TRACON (SMA)
10:20AM 39.8467 -75.6892 134° Southeast 267 307 5,300 -900 Descending FAA TRACON SMA TRACON (SMA)
10:20AM 39.8361 -75.6633 118° Southeast 265 305 5,000 -900 Descending FAA TRACON SMA TRACON (SMA)
10:20AM 39.8297 -75.6253 102° East 276 318 4,700 -900 Descending FAA TRACON SMA TRACON (SMA)
10:21AM 39.8250 -75.5961 102° East 268 308 4,400 -900 Descending FAA TRACON SMA TRACON (SMA)
10:21AM 39.8206 -75.5678 102° East 264 304 4,100 -1,080 Descending FAA TRACON SMA TRACON (SMA)
10:21AM 39.8161 -75.5350 100° East 253 291 3,700 -1,080 Descending FAA TRACON SMA TRACON (SMA)
10:22AM 39.8142 -75.5097 96° East 227 261 3,400 -780 Descending FAA TRACON SMA TRACON (SMA)
10:22AM 39.8189 -75.4861 75° East 215 247 3,200 -600 Descending FAA TRACON SMA TRACON (SMA)